createdAt,value
2022-09-26T00:01:59.155Z,0.00
2022-09-26T00:07:23.873Z,0.00
2022-09-26T00:12:16.817Z,0.00
2022-09-26T00:17:16.714Z,0.00
2022-09-26T00:22:16.654Z,0.00
2022-09-26T00:27:17.282Z,0.00
2022-09-26T00:32:16.495Z,0.00
2022-09-26T00:37:16.454Z,0.00
2022-09-26T00:42:16.398Z,0.00
2022-09-26T00:47:16.320Z,0.00
2022-09-26T00:52:16.251Z,0.00
2022-09-26T00:57:16.244Z,0.00
2022-09-26T01:02:16.341Z,0.00
2022-09-26T01:07:16.018Z,0.00
2022-09-26T01:12:15.982Z,0.00
2022-09-26T01:17:15.938Z,0.00
2022-09-26T01:22:15.920Z,0.00
2022-09-26T01:27:15.778Z,0.00
2022-09-26T01:32:17.612Z,0.00
2022-09-26T01:37:15.690Z,0.00
2022-09-26T01:42:15.569Z,0.00
2022-09-26T01:47:15.513Z,0.00
2022-09-26T01:52:15.446Z,0.00
2022-09-26T01:57:15.391Z,0.00
2022-09-26T02:02:15.357Z,0.00
2022-09-26T02:07:15.251Z,0.00
2022-09-26T02:12:15.158Z,0.00
2022-09-26T02:17:15.103Z,0.00
2022-09-26T02:22:15.042Z,0.00
2022-09-26T02:27:14.961Z,0.00
2022-09-26T02:32:14.995Z,0.00
2022-09-26T02:37:14.844Z,0.00
2022-09-26T02:42:14.781Z,0.00
2022-09-26T02:47:14.722Z,0.00
2022-09-26T02:52:14.642Z,0.00
2022-09-26T02:57:14.577Z,0.00
2022-09-26T03:02:14.511Z,0.00
2022-09-26T03:07:14.463Z,0.00
2022-09-26T03:12:14.374Z,0.00
2022-09-26T03:17:14.329Z,0.00
2022-09-26T03:22:14.247Z,0.00
2022-09-26T03:27:14.177Z,0.00
2022-09-26T03:32:14.366Z,0.00
2022-09-26T03:37:14.027Z,0.00
2022-09-26T03:42:13.985Z,0.00
2022-09-26T03:47:13.906Z,0.00
2022-09-26T03:52:13.863Z,0.00
2022-09-26T03:57:13.798Z,0.00
2022-09-26T04:02:13.812Z,0.00
2022-09-26T04:07:13.644Z,0.00
2022-09-26T04:12:13.591Z,0.00
2022-09-26T04:17:23.460Z,0.00
2022-09-26T04:22:16.359Z,0.00
2022-09-26T04:27:18.130Z,0.00
2022-09-26T04:32:16.229Z,0.00
2022-09-26T04:37:16.229Z,0.00
2022-09-26T04:42:16.095Z,0.00
2022-09-26T04:47:16.015Z,0.00
2022-09-26T04:52:15.952Z,0.00
2022-09-26T04:57:19.469Z,0.00
2022-09-26T05:02:15.922Z,0.00
2022-09-26T05:07:16.527Z,8.00
2022-09-26T05:12:15.698Z,12.00
2022-09-26T05:17:15.636Z,24.00
2022-09-26T05:22:15.548Z,44.00
2022-09-26T05:27:15.462Z,60.00
2022-09-26T05:32:15.414Z,112.00
2022-09-26T05:37:15.362Z,128.00
2022-09-26T05:42:16.398Z,124.00
2022-09-26T05:47:15.260Z,204.00
2022-09-26T05:52:16.440Z,320.00
2022-09-26T05:57:15.087Z,452.00
2022-09-26T06:02:19.976Z,416.00
2022-09-26T06:07:16.008Z,520.00
2022-09-26T06:12:14.857Z,632.00
2022-09-26T06:17:14.839Z,708.00
2022-09-26T06:22:14.750Z,512.00
2022-09-26T06:27:14.644Z,520.00
2022-09-26T06:32:14.607Z,324.00
2022-09-26T06:37:14.550Z,380.00
2022-09-26T06:42:14.452Z,448.00
2022-09-26T06:47:14.496Z,436.00
2022-09-26T06:52:14.348Z,492.00
2022-09-26T06:57:15.186Z,552.00
2022-09-26T07:02:14.302Z,664.00
2022-09-26T07:07:14.148Z,960.00
2022-09-26T07:12:15.488Z,1092.00
2022-09-26T07:17:14.004Z,1164.00
2022-09-26T07:22:13.907Z,1444.00
2022-09-26T07:27:13.844Z,1760.00
2022-09-26T07:32:13.787Z,2148.00
2022-09-26T07:37:13.731Z,2940.00
2022-09-26T07:42:13.673Z,2180.00
2022-09-26T07:47:13.607Z,2224.00
2022-09-26T07:52:13.532Z,1604.00
2022-09-26T07:57:13.469Z,1500.00
2022-09-26T08:02:13.487Z,1344.00
2022-09-26T08:07:13.376Z,1612.00
2022-09-26T08:12:13.238Z,1464.00
2022-09-26T08:17:14.352Z,1440.00
2022-09-26T08:22:13.148Z,1364.00
2022-09-26T08:27:13.046Z,1196.00
2022-09-26T08:32:12.988Z,1064.00
2022-09-26T08:37:12.911Z,1272.00
2022-09-26T08:42:12.855Z,964.00
2022-09-26T08:47:12.813Z,984.00
2022-09-26T08:52:12.719Z,1168.00
2022-09-26T08:57:12.651Z,1104.00
2022-09-26T09:02:12.793Z,1096.00
2022-09-26T09:07:12.526Z,2200.00
2022-09-26T09:12:12.463Z,2240.00
2022-09-26T09:17:12.378Z,1168.00
2022-09-26T09:22:12.313Z,1132.00
2022-09-26T09:32:13.178Z,1960.00
2022-09-26T09:37:12.110Z,1716.00
2022-09-26T09:42:12.041Z,1240.00
2022-09-26T09:47:11.984Z,1492.00
2022-09-26T09:52:11.900Z,1144.00
2022-09-26T09:57:11.853Z,1152.00
2022-09-26T10:02:11.757Z,1060.00
2022-09-26T10:07:11.703Z,1064.00
2022-09-26T10:12:11.898Z,1316.00
2022-09-26T10:17:11.660Z,1520.00
2022-09-26T10:22:11.633Z,1676.00
2022-09-26T10:27:11.470Z,1760.00
2022-09-26T10:32:11.354Z,1420.00
2022-09-26T10:37:11.317Z,1332.00
2022-09-26T10:42:11.218Z,1356.00
2022-09-26T10:47:11.161Z,1196.00
2022-09-26T10:52:16.026Z,1448.00
2022-09-26T10:57:12.037Z,1556.00
2022-09-26T11:02:11.054Z,1732.00
2022-09-26T11:07:10.899Z,1292.00
2022-09-26T11:12:11.096Z,1152.00
2022-09-26T11:17:10.782Z,1232.00
2022-09-26T11:22:10.697Z,1364.00
2022-09-26T11:27:10.622Z,1272.00
2022-09-26T11:32:31.626Z,1044.00
2022-09-26T11:37:10.520Z,1008.00
2022-09-26T11:42:10.426Z,1004.00
2022-09-26T11:47:10.420Z,1036.00
2022-09-26T11:52:10.643Z,1132.00
2022-09-26T11:57:10.418Z,1076.00
2022-09-26T12:02:10.149Z,1032.00
2022-09-26T12:07:10.076Z,968.00
2022-09-26T12:12:10.007Z,948.00
2022-09-26T12:17:09.932Z,1136.00
2022-09-26T12:22:09.894Z,1396.00
2022-09-26T12:27:09.806Z,1736.00
2022-09-26T12:32:09.735Z,2092.00
2022-09-26T12:37:09.704Z,1740.00
2022-09-26T12:42:09.621Z,1596.00
2022-09-26T12:47:09.542Z,1876.00
2022-09-26T12:52:09.491Z,1996.00
2022-09-26T12:57:09.399Z,2620.00
2022-09-26T13:02:09.383Z,3420.00
2022-09-26T13:07:24.571Z,3044.00
2022-09-26T13:12:10.199Z,2964.00
2022-09-26T13:17:09.155Z,2872.00
2022-09-26T13:22:09.064Z,3244.00
2022-09-26T13:27:08.974Z,3108.00
2022-09-26T13:32:08.913Z,2776.00
2022-09-26T13:37:08.880Z,2388.00
2022-09-26T13:42:08.782Z,2156.00
2022-09-26T13:47:08.738Z,2068.00
2022-09-26T13:52:08.672Z,1704.00
2022-09-26T13:57:08.600Z,1096.00
2022-09-26T14:02:08.542Z,1068.00
2022-09-26T14:07:08.468Z,1316.00
2022-09-26T14:12:08.419Z,684.00
2022-09-26T14:17:08.331Z,692.00
2022-09-26T14:22:08.253Z,516.00
2022-09-26T14:27:08.204Z,400.00
2022-09-26T14:32:08.202Z,280.00
2022-09-26T14:37:08.071Z,292.00
2022-09-26T14:42:07.979Z,336.00
2022-09-26T14:47:07.909Z,312.00
2022-09-26T14:52:11.305Z,368.00
2022-09-26T14:57:07.815Z,284.00
2022-09-26T15:02:07.783Z,276.00
2022-09-26T15:07:07.649Z,184.00
2022-09-26T15:12:07.603Z,168.00
2022-09-26T15:17:07.499Z,228.00
2022-09-26T15:22:07.457Z,192.00
2022-09-26T15:27:07.435Z,180.00
2022-09-26T15:32:07.317Z,240.00
2022-09-26T15:37:07.271Z,280.00
2022-09-26T15:42:07.207Z,300.00
2022-09-26T15:47:07.123Z,280.00
2022-09-26T15:52:07.072Z,176.00
2022-09-26T15:57:06.998Z,208.00
2022-09-26T16:02:06.991Z,148.00
2022-09-26T16:07:06.857Z,152.00
2022-09-26T16:12:10.368Z,172.00
2022-09-26T16:17:07.709Z,192.00
2022-09-26T16:22:06.668Z,176.00
2022-09-26T16:27:06.559Z,196.00
2022-09-26T16:32:06.493Z,164.00
2022-09-26T16:37:06.439Z,136.00
2022-09-26T16:42:06.361Z,108.00
2022-09-26T16:47:06.279Z,80.00
2022-09-26T16:52:06.262Z,56.00
2022-09-26T16:57:06.171Z,36.00
2022-09-26T17:02:06.190Z,36.00
2022-09-26T17:07:09.543Z,24.00
2022-09-26T17:12:06.364Z,16.00
2022-09-26T17:17:05.906Z,8.00
2022-09-26T17:22:05.834Z,4.00
2022-09-26T17:27:06.121Z,4.00
2022-09-26T17:32:09.617Z,4.00
2022-09-26T17:37:05.673Z,0.00
2022-09-26T17:42:05.594Z,0.00
2022-09-26T17:47:05.531Z,0.00
2022-09-26T17:52:05.415Z,0.00
2022-09-26T17:57:05.365Z,0.00
2022-09-26T18:02:05.354Z,0.00
2022-09-26T18:07:06.049Z,0.00
2022-09-26T18:12:06.105Z,0.00
2022-09-26T18:17:05.087Z,0.00
2022-09-26T18:22:05.274Z,0.00
2022-09-26T18:27:05.192Z,0.00
2022-09-26T18:32:04.971Z,0.00
2022-09-26T18:37:04.838Z,0.00
2022-09-26T18:42:04.863Z,0.00
2022-09-26T18:47:04.756Z,0.00
2022-09-26T18:52:04.625Z,0.00
2022-09-26T18:57:04.566Z,0.00
2022-09-26T19:02:04.707Z,0.00
2022-09-26T19:07:04.473Z,0.00
2022-09-26T19:12:04.392Z,0.00
2022-09-26T19:17:04.314Z,0.00
2022-09-26T19:22:04.195Z,0.00
2022-09-26T19:27:06.421Z,0.00
2022-09-26T19:32:04.141Z,0.00
2022-09-26T19:37:04.027Z,0.00
2022-09-26T19:42:04.010Z,0.00
2022-09-26T19:47:04.005Z,0.00
2022-09-26T19:52:03.912Z,0.00
2022-09-26T19:57:03.756Z,0.00
2022-09-26T20:02:03.790Z,0.00
2022-09-26T20:07:03.619Z,0.00
2022-09-26T20:12:03.585Z,0.00
2022-09-26T20:17:03.579Z,0.00
2022-09-26T20:22:03.516Z,0.00
2022-09-26T20:27:03.388Z,0.00
2022-09-26T20:32:03.294Z,0.00
2022-09-26T20:37:03.196Z,0.00
2022-09-26T20:42:03.187Z,0.00
2022-09-26T20:47:03.109Z,0.00
2022-09-26T20:52:03.020Z,0.00
2022-09-26T20:57:03.064Z,0.00
2022-09-26T21:02:02.926Z,0.00
2022-09-26T21:07:02.787Z,0.00
2022-09-26T21:12:02.762Z,0.00
2022-09-26T21:17:02.707Z,0.00
2022-09-26T21:22:02.950Z,0.00
2022-09-26T21:27:02.611Z,0.00
2022-09-26T21:32:02.470Z,0.00
2022-09-26T21:37:02.387Z,0.00
2022-09-26T21:42:02.359Z,0.00
2022-09-26T21:47:02.282Z,0.00
2022-09-26T21:52:02.200Z,0.00
2022-09-26T21:57:02.124Z,0.00
2022-09-26T22:02:02.193Z,0.00
2022-09-26T22:07:02.002Z,0.00
2022-09-26T22:12:01.951Z,0.00
2022-09-26T22:17:01.919Z,0.00
2022-09-26T22:22:01.804Z,0.00
2022-09-26T22:27:01.729Z,0.00
2022-09-26T22:32:01.664Z,0.00
2022-09-26T22:37:01.566Z,0.00
2022-09-26T22:42:01.553Z,0.00
2022-09-26T22:47:01.455Z,0.00
2022-09-26T22:52:01.388Z,0.00
2022-09-26T22:57:01.311Z,0.00
2022-09-26T23:02:01.288Z,0.00
2022-09-26T23:07:01.238Z,0.00
2022-09-26T23:12:01.116Z,0.00
2022-09-26T23:17:01.101Z,0.00
2022-09-26T23:22:01.034Z,0.00
2022-09-26T23:27:00.937Z,0.00
2022-09-26T23:32:00.863Z,0.00
2022-09-26T23:37:00.791Z,0.00
2022-09-26T23:42:00.753Z,0.00
2022-09-26T23:47:00.727Z,0.00
2022-09-26T23:52:00.647Z,0.00
2022-09-26T23:57:00.552Z,0.00
